Time;durP1;ratioP1;P1;durP2;ratioP2;P2;SDS_P1;SDS_P2;PMS_P1;PMS_P2;Temp;Humidity;BMP_temperature;BMP_pressure;BME280_temperature;BME280_humidity;BME280_pressure;Samples;Min_cycle;Max_cycle;Signal;HPM_P1;HPM_P2
2020/12/11 00:02:05;;;;;;;26.23;9.55;;;1.20;99.90;;;;;;5021177;28;20033;-62
2020/12/11 00:04:31;;;;;;;20.30;8.18;;;1.20;99.90;;;;;;5025985;28;20038;-62
2020/12/11 00:06:57;;;;;;;20.50;8.40;;;1.20;99.90;;;;;;5022617;28;20080;-62
2020/12/11 00:09:24;;;;;;;21.67;8.43;;;1.20;99.90;;;;;;5025424;28;20486;-61
2020/12/11 00:11:50;;;;;;;22.88;9.27;;;1.20;99.90;;;;;;5021757;28;20030;-62
2020/12/11 00:14:16;;;;;;;18.35;8.85;;;1.20;99.90;;;;;;5023571;28;20080;-62
2020/12/11 00:16:42;;;;;;;19.50;7.85;;;1.10;99.90;;;;;;5024718;28;20025;-62
2020/12/11 00:19:08;;;;;;;23.15;8.07;;;1.10;99.90;;;;;;5019009;28;20124;-61
2020/12/11 00:21:41;;;;;;;21.85;9.55;;;1.10;99.90;;;;;;5022736;28;20025;-61
2020/12/11 00:24:07;;;;;;;22.40;9.52;;;1.00;99.90;;;;;;5021543;28;20046;-63
2020/12/11 00:26:33;;;;;;;21.17;9.10;;;1.00;99.90;;;;;;5023513;28;20501;-62
2020/12/11 00:28:59;;;;;;;19.63;7.90;;;1.00;99.90;;;;;;5019756;28;20083;-62
2020/12/11 00:31:25;;;;;;;23.17;8.90;;;1.10;99.90;;;;;;5023792;28;20110;-61
2020/12/11 00:33:51;;;;;;;19.27;7.97;;;1.10;99.90;;;;;;5023610;28;20055;-61
2020/12/11 00:36:17;;;;;;;20.30;8.10;;;1.10;99.90;;;;;;5021709;28;20041;-61
2020/12/11 00:38:43;;;;;;;21.42;8.35;;;1.10;99.90;;;;;;5020241;28;20032;-61
2020/12/11 00:41:08;;;;;;;20.48;8.32;;;1.10;99.90;;;;;;5020605;28;20034;-62
2020/12/11 00:43:35;;;;;;;21.85;9.38;;;1.10;99.90;;;;;;5024275;28;20125;-61
2020/12/11 00:46:01;;;;;;;18.83;8.52;;;1.20;99.90;;;;;;5025045;28;20033;-62
2020/12/11 00:48:26;;;;;;;21.45;8.57;;;1.20;99.90;;;;;;5021513;28;20044;-63
2020/12/11 00:50:52;;;;;;;18.73;8.02;;;1.20;99.90;;;;;;5024508;28;20084;-63
2020/12/11 00:53:17;;;;;;;23.85;9.00;;;1.20;99.90;;;;;;5021996;28;20394;-62
2020/12/11 00:55:43;;;;;;;19.23;8.38;;;1.20;99.90;;;;;;5023117;28;20030;-61
2020/12/11 00:58:09;;;;;;;20.98;9.00;;;1.20;99.90;;;;;;5021247;28;20482;-62
2020/12/11 01:00:34;;;;;;;22.38;8.52;;;1.20;99.90;;;;;;5024329;28;20399;-62
2020/12/11 01:03:00;;;;;;;20.95;8.70;;;1.20;99.90;;;;;;5020338;28;20552;-63
2020/12/11 01:05:26;;;;;;;19.83;8.68;;;1.20;99.90;;;;;;5017619;28;20103;-62
2020/12/11 01:07:51;;;;;;;21.67;8.82;;;1.20;99.90;;;;;;5021256;28;20041;-61
2020/12/11 01:10:20;;;;;;;19.67;9.20;;;1.20;99.90;;;;;;5017744;28;20498;-62
2020/12/11 01:12:45;;;;;;;20.30;8.60;;;1.20;99.90;;;;;;5020618;28;20501;-62
2020/12/11 01:15:11;;;;;;;19.50;8.00;;;1.20;99.90;;;;;;5018930;28;20442;-63
2020/12/11 01:17:37;;;;;;;20.50;8.15;;;1.20;99.90;;;;;;5019229;28;20057;-62
2020/12/11 01:20:04;;;;;;;17.90;8.48;;;1.20;99.90;;;;;;5019416;28;20083;-62
2020/12/11 01:22:30;;;;;;;24.60;8.60;;;1.10;99.90;;;;;;5017202;28;20702;-62
2020/12/11 01:24:57;;;;;;;20.17;8.52;;;1.20;99.90;;;;;;5020338;28;20479;-62
2020/12/11 01:27:23;;;;;;;21.33;8.73;;;1.20;99.90;;;;;;5018829;28;20098;-62
2020/12/11 01:29:49;;;;;;;17.88;7.93;;;1.20;99.90;;;;;;5019693;28;20033;-62
2020/12/11 01:32:14;;;;;;;22.77;8.57;;;1.20;99.90;;;;;;5020169;28;20231;-61
2020/12/11 01:34:40;;;;;;;17.55;7.95;;;1.20;99.90;;;;;;5016341;28;20497;-62
2020/12/11 01:37:06;;;;;;;20.23;8.07;;;1.20;99.90;;;;;;5018871;28;20030;-62
2020/12/11 01:39:32;;;;;;;16.45;7.75;;;1.20;99.90;;;;;;5019006;28;20030;-62
2020/12/11 01:41:58;;;;;;;17.42;7.38;;;1.20;99.90;;;;;;5017127;28;20056;-62
2020/12/11 01:44:24;;;;;;;20.17;7.35;;;1.20;99.90;;;;;;5018509;28;20382;-62
2020/12/11 01:46:50;;;;;;;17.75;7.75;;;1.20;99.90;;;;;;5015816;28;20116;-63
2020/12/11 01:49:16;;;;;;;20.08;7.90;;;1.20;99.90;;;;;;5019883;28;20113;-62
2020/12/11 01:51:44;;;;;;;15.23;7.65;;;1.20;99.90;;;;;;5017074;28;20034;-62
2020/12/11 01:54:10;;;;;;;16.95;7.22;;;1.10;99.90;;;;;;5018296;28;20099;-62
2020/12/11 01:57:05;;;;;;;20.60;8.98;;;1.20;99.90;;;;;;5017062;28;20372;-62
2020/12/11 01:59:39;;;;;;;18.42;8.27;;;1.10;99.90;;;;;;5016982;28;20092;-62
2020/12/11 02:02:05;;;;;;;20.85;7.22;;;1.10;99.90;;;;;;5018568;28;20395;-62
2020/12/11 02:04:33;;;;;;;22.23;8.02;;;1.00;99.90;;;;;;5018091;28;20092;-63
2020/12/11 02:06:59;;;;;;;14.77;7.57;;;0.90;99.90;;;;;;5018753;28;20112;-61
2020/12/11 02:09:25;;;;;;;19.00;7.75;;;0.90;99.90;;;;;;5017482;28;20113;-62
2020/12/11 02:11:53;;;;;;;17.10;7.03;;;0.90;99.90;;;;;;5019098;28;20057;-61
2020/12/11 02:14:19;;;;;;;15.90;7.53;;;0.90;99.90;;;;;;5015959;28;20056;-61
2020/12/11 02:16:46;;;;;;;17.33;7.30;;;0.90;99.90;;;;;;5019362;28;20453;-61
2020/12/11 02:19:12;;;;;;;16.83;7.78;;;0.90;99.90;;;;;;5016896;28;20037;-61
2020/12/11 02:21:38;;;;;;;15.98;7.07;;;0.90;99.90;;;;;;5018431;28;20034;-62
2020/12/11 02:24:03;;;;;;;16.10;6.97;;;0.80;99.90;;;;;;5015678;28;20112;-61
2020/12/11 02:26:29;;;;;;;18.25;7.25;;;0.80;99.90;;;;;;5017781;28;20034;-61
2020/12/11 02:28:55;;;;;;;17.40;7.32;;;0.80;99.90;;;;;;5018467;28;20042;-61
2020/12/11 02:31:20;;;;;;;16.98;7.57;;;0.70;99.90;;;;;;5020877;28;20058;-61
2020/12/11 02:33:46;;;;;;;15.20;6.50;;;0.70;99.90;;;;;;5015532;28;20117;-61
2020/12/11 02:36:12;;;;;;;16.45;7.60;;;0.70;99.90;;;;;;5018347;28;20029;-61
2020/12/11 02:38:37;;;;;;;15.43;7.07;;;0.80;99.90;;;;;;5017592;28;20157;-62
2020/12/11 02:41:03;;;;;;;13.02;6.35;;;0.70;99.90;;;;;;5017407;28;20042;-62
2020/12/11 02:43:36;;;;;;;12.43;6.35;;;0.70;99.90;;;;;;5016577;28;20465;-62
2020/12/11 02:46:03;;;;;;;14.95;6.75;;;0.80;99.90;;;;;;5019392;28;20092;-61
2020/12/11 02:48:29;;;;;;;14.85;6.10;;;0.80;99.90;;;;;;5022070;28;20041;-61
2020/12/11 02:50:55;;;;;;;15.95;6.72;;;0.70;99.90;;;;;;5020574;28;20036;-61
2020/12/11 02:53:21;;;;;;;14.10;6.68;;;0.80;99.90;;;;;;5020317;28;20525;-61
2020/12/11 02:55:46;;;;;;;17.10;7.13;;;0.80;99.90;;;;;;5022635;28;20116;-61
2020/12/11 02:58:12;;;;;;;14.45;6.43;;;0.80;99.90;;;;;;5018727;28;20044;-62
2020/12/11 03:00:37;;;;;;;14.70;5.88;;;0.70;99.90;;;;;;5022662;28;20086;-61
2020/12/11 03:03:03;;;;;;;15.43;7.13;;;0.70;99.90;;;;;;5020505;28;20034;-62
2020/12/11 03:05:29;;;;;;;14.73;6.35;;;0.80;99.90;;;;;;5018395;28;20106;-62
2020/12/11 03:07:54;;;;;;;13.90;7.05;;;0.80;99.90;;;;;;5018733;28;20030;-61
2020/12/11 03:10:20;;;;;;;13.50;6.30;;;0.80;99.90;;;;;;5022500;28;20053;-61
2020/12/11 03:12:45;;;;;;;13.50;7.05;;;0.70;99.90;;;;;;5019586;28;20087;-61
2020/12/11 03:15:11;;;;;;;13.48;6.68;;;0.70;99.90;;;;;;5022634;28;20040;-61
2020/12/11 03:17:36;;;;;;;17.35;6.57;;;0.60;99.90;;;;;;5020358;28;20124;-62
2020/12/11 03:20:02;;;;;;;19.67;6.32;;;0.60;99.90;;;;;;5021109;28;20041;-62
2020/12/11 03:22:28;;;;;;;16.17;6.60;;;0.70;99.90;;;;;;5021063;28;20048;-62
2020/12/11 03:24:53;;;;;;;22.05;6.90;;;0.60;99.90;;;;;;5017847;28;20030;-62
2020/12/11 03:27:19;;;;;;;17.00;7.40;;;0.60;99.90;;;;;;5020164;28;20030;-62
2020/12/11 03:29:45;;;;;;;18.70;7.15;;;0.60;99.90;;;;;;5022740;28;20033;-62
2020/12/11 03:32:10;;;;;;;17.38;6.93;;;0.60;99.90;;;;;;5017449;28;20044;-62
2020/12/11 03:34:36;;;;;;;13.80;6.28;;;0.70;99.90;;;;;;5021906;28;20057;-62
2020/12/11 03:37:01;;;;;;;14.05;6.45;;;0.70;99.90;;;;;;5018602;28;20069;-62
2020/12/11 03:39:27;;;;;;;15.10;7.00;;;0.70;99.90;;;;;;5020772;28;20299;-62
2020/12/11 03:41:53;;;;;;;16.50;7.72;;;0.70;99.90;;;;;;5017961;28;20037;-62
2020/12/11 03:44:19;;;;;;;16.98;7.07;;;0.70;99.90;;;;;;5021957;28;20127;-62
2020/12/11 03:46:45;;;;;;;20.95;7.07;;;0.80;99.90;;;;;;5017700;28;20034;-62
2020/12/11 03:49:11;;;;;;;16.50;6.80;;;0.80;99.90;;;;;;5021956;28;20083;-61
2020/12/11 03:51:37;;;;;;;14.88;6.38;;;0.90;99.90;;;;;;5020935;28;20025;-61
2020/12/11 03:54:03;;;;;;;16.02;7.50;;;0.90;99.90;;;;;;5022580;28;20071;-62
2020/12/11 03:56:29;;;;;;;15.13;6.53;;;0.90;99.90;;;;;;5018575;28;20150;-62
2020/12/11 03:58:54;;;;;;;22.60;7.68;;;1.00;99.90;;;;;;5019739;28;20571;-61
2020/12/11 04:01:20;;;;;;;18.80;6.97;;;1.00;99.90;;;;;;5020807;28;20037;-61
2020/12/11 04:03:47;;;;;;;17.75;7.55;;;1.00;99.90;;;;;;5022472;28;20091;-61
2020/12/11 04:06:14;;;;;;;14.20;6.57;;;1.10;99.90;;;;;;5018018;28;20041;-60
2020/12/11 04:08:41;;;;;;;16.42;6.90;;;1.10;99.90;;;;;;5020415;28;20460;-60
2020/12/11 04:11:09;;;;;;;17.77;7.10;;;1.10;99.90;;;;;;5020872;28;20087;-62
2020/12/11 04:13:35;;;;;;;14.60;7.20;;;1.20;99.90;;;;;;5018739;28;20042;-63
2020/12/11 04:16:00;;;;;;;17.38;7.80;;;1.20;99.90;;;;;;5018314;28;20458;-61
2020/12/11 04:18:26;;;;;;;14.30;7.00;;;1.20;99.90;;;;;;5019947;28;20029;-61
2020/12/11 04:20:52;;;;;;;14.73;6.97;;;1.20;99.90;;;;;;5019049;28;20026;-62
2020/12/11 04:23:18;;;;;;;14.88;6.68;;;1.20;99.90;;;;;;5019790;28;20083;-62
2020/12/11 04:25:43;;;;;;;15.30;6.88;;;1.10;99.90;;;;;;5018192;28;20434;-62
2020/12/11 04:28:09;;;;;;;15.05;6.20;;;1.10;99.90;;;;;;5021400;28;20029;-61
2020/12/11 04:30:34;;;;;;;17.20;6.60;;;1.00;99.90;;;;;;5017343;28;20129;-61
2020/12/11 04:33:00;;;;;;;17.73;8.00;;;1.00;99.90;;;;;;5020431;28;20030;-61
2020/12/11 04:35:25;;;;;;;15.63;6.97;;;1.00;99.90;;;;;;5019447;28;20219;-61
2020/12/11 04:37:51;;;;;;;17.77;7.80;;;1.00;99.90;;;;;;5019176;28;20038;-62
2020/12/11 04:40:17;;;;;;;19.65;8.70;;;1.00;99.90;;;;;;5017031;28;20084;-63
2020/12/11 04:42:47;;;;;;;15.95;7.30;;;0.90;99.90;;;;;;5034667;23;20037;-67
2020/12/11 04:45:15;;;;;;;16.52;7.10;;;0.90;99.90;;;;;;4997936;28;20113;-67
2020/12/11 04:47:45;;;;;;;15.55;6.78;;;1.00;99.90;;;;;;4996852;28;20030;-66
2020/12/11 04:50:15;;;;;;;15.93;6.78;;;1.00;99.90;;;;;;5000051;28;20469;-66
2020/12/11 04:52:46;;;;;;;17.20;6.55;;;1.00;99.90;;;;;;4995952;28;20092;-66
2020/12/11 04:55:20;;;;;;;15.90;7.00;;;1.00;99.90;;;;;;4997245;28;20050;-66
2020/12/11 04:57:53;;;;;;;17.38;7.47;;;0.90;99.90;;;;;;5000382;28;20038;-68
2020/12/11 05:00:21;;;;;;;14.82;6.45;;;0.90;99.90;;;;;;4998400;28;20042;-67
2020/12/11 05:02:47;;;;;;;15.02;6.15;;;1.00;99.90;;;;;;4998535;28;20044;-68
2020/12/11 05:05:17;;;;;;;16.13;7.22;;;1.00;99.90;;;;;;4997541;28;20031;-66
2020/12/11 05:07:44;;;;;;;14.80;5.85;;;1.00;99.90;;;;;;5000322;28;20034;-66
2020/12/11 05:10:11;;;;;;;17.48;7.57;;;0.90;99.90;;;;;;4995881;28;20038;-67
2020/12/11 05:12:37;;;;;;;15.13;6.88;;;0.90;99.90;;;;;;4997706;28;20510;-67
2020/12/11 05:15:08;;;;;;;15.68;6.68;;;0.90;99.90;;;;;;4999530;28;20034;-67
2020/12/11 05:17:35;;;;;;;17.52;6.75;;;0.90;99.90;;;;;;4995655;28;20039;-66
2020/12/11 05:20:02;;;;;;;13.95;6.88;;;0.90;99.90;;;;;;4998805;28;20100;-67
2020/12/11 05:22:41;;;;;;;15.40;7.22;;;0.90;99.90;;;;;;4997452;28;20289;-66
2020/12/11 05:25:15;;;;;;;15.35;6.63;;;1.00;99.90;;;;;;4999863;28;20058;-66
2020/12/11 05:27:43;;;;;;;18.67;6.93;;;1.00;99.90;;;;;;4997124;28;20049;-66
2020/12/11 05:30:17;;;;;;;18.50;7.63;;;1.00;99.90;;;;;;5000523;28;20544;-66
2020/12/11 05:32:44;;;;;;;18.38;7.82;;;1.10;99.90;;;;;;5000585;28;20545;-66
2020/12/11 05:35:18;;;;;;;14.77;6.50;;;1.10;99.90;;;;;;4997010;28;20427;-66
2020/12/11 05:37:48;;;;;;;15.25;6.55;;;1.20;99.90;;;;;;4997720;28;20022;-66
2020/12/11 05:40:18;;;;;;;16.63;7.63;;;1.20;99.90;;;;;;4997661;28;20029;-66
2020/12/11 05:43:02;;;;;;;12.88;6.60;;;1.30;99.90;;;;;;4997191;28;20037;-66
2020/12/11 05:45:28;;;;;;;17.95;7.43;;;1.30;99.90;;;;;;4997682;28;20069;-66
2020/12/11 05:48:00;;;;;;;14.38;6.72;;;1.30;99.90;;;;;;4998098;28;20518;-66
2020/12/11 05:50:25;;;;;;;16.75;7.15;;;1.30;99.90;;;;;;4997274;28;20073;-67
2020/12/11 05:52:53;;;;;;;12.65;6.28;;;1.40;99.90;;;;;;4998340;28;20491;-66
2020/12/11 05:55:20;;;;;;;15.20;6.25;;;1.40;99.90;;;;;;4998887;28;20053;-66
2020/12/11 05:57:46;;;;;;;15.07;6.50;;;1.40;99.90;;;;;;4999705;28;20401;-66
2020/12/11 06:00:12;;;;;;;15.18;6.57;;;1.40;99.90;;;;;;4999771;28;20034;-66
2020/12/11 06:02:39;;;;;;;11.32;6.45;;;1.50;99.90;;;;;;4994798;28;20093;-65
2020/12/11 06:05:06;;;;;;;13.23;6.57;;;1.50;99.90;;;;;;5000502;28;20495;-67
2020/12/11 06:07:34;;;;;;;14.23;6.97;;;1.50;99.90;;;;;;4996228;28;20059;-67
2020/12/11 06:10:04;;;;;;;14.52;6.60;;;1.60;99.90;;;;;;4998509;28;20022;-67
2020/12/11 06:12:31;;;;;;;14.57;6.32;;;1.60;99.90;;;;;;4994836;28;20414;-66
2020/12/11 06:15:02;;;;;;;16.55;6.45;;;1.60;99.90;;;;;;4999536;28;20747;-67
2020/12/11 06:17:31;;;;;;;15.93;6.40;;;1.60;99.90;;;;;;4996651;28;20088;-67
2020/12/11 06:20:00;;;;;;;14.30;6.32;;;1.70;99.90;;;;;;4999587;28;20030;-67
2020/12/11 06:22:26;;;;;;;16.20;6.82;;;1.70;99.90;;;;;;5002148;28;20594;-67
2020/12/11 06:24:52;;;;;;;16.60;5.78;;;1.60;99.90;;;;;;5004328;28;20113;-67
2020/12/11 06:27:30;;;;;;;15.40;6.68;;;1.70;99.90;;;;;;5002407;28;20050;-66
2020/12/11 06:29:56;;;;;;;13.88;6.55;;;1.70;99.90;;;;;;5001526;28;20046;-68
2020/12/11 06:32:32;;;;;;;13.95;6.75;;;1.80;99.90;;;;;;5002017;28;20042;-67
2020/12/11 06:35:15;;;;;;;14.63;6.60;;;1.80;99.90;;;;;;5001019;28;20121;-66
2020/12/11 06:37:41;;;;;;;13.57;6.43;;;1.80;99.90;;;;;;5004416;28;20037;-68
2020/12/11 06:40:07;;;;;;;17.10;6.80;;;1.80;99.90;;;;;;5001651;28;20116;-68
2020/12/11 06:42:36;;;;;;;14.50;5.97;;;1.80;99.90;;;;;;5011399;28;20037;-68
2020/12/11 06:45:18;;;;;;;16.73;7.53;;;1.90;99.90;;;;;;5014847;28;20049;-69
2020/12/11 06:48:01;;;;;;;15.65;5.93;;;2.00;99.90;;;;;;5021716;28;20037;-67
2020/12/11 06:50:30;;;;;;;15.55;6.75;;;1.90;99.90;;;;;;4999644;28;20109;-66
2020/12/11 06:52:56;;;;;;;13.90;5.65;;;1.90;99.90;;;;;;5004841;28;20442;-66
2020/12/11 06:55:22;;;;;;;13.90;7.03;;;2.00;99.90;;;;;;5004103;28;20057;-68
2020/12/11 06:57:49;;;;;;;13.38;5.85;;;2.00;99.90;;;;;;4999378;28;20034;-67
2020/12/11 07:00:32;;;;;;;14.70;6.70;;;1.90;99.90;;;;;;5002436;28;20037;-67
2020/12/11 07:03:13;;;;;;;14.55;6.07;;;1.90;99.90;;;;;;5002972;28;20029;-68
2020/12/11 07:05:39;;;;;;;13.45;6.70;;;2.00;99.90;;;;;;5004766;28;20038;-67
2020/12/11 07:08:16;;;;;;;13.48;6.10;;;1.90;99.90;;;;;;5003330;28;20022;-67
2020/12/11 07:10:43;;;;;;;13.25;6.18;;;2.00;99.90;;;;;;5001700;28;20062;-67
2020/12/11 07:13:12;;;;;;;17.45;6.72;;;2.00;99.90;;;;;;5001710;28;20034;-68
2020/12/11 07:15:38;;;;;;;11.02;5.75;;;2.00;99.90;;;;;;5000949;28;20466;-67
2020/12/11 07:18:11;;;;;;;20.00;8.25;;;2.00;99.90;;;;;;5003691;28;20026;-66
2020/12/11 07:20:36;;;;;;;15.32;6.80;;;2.10;99.90;;;;;;5001004;28;20037;-66
2020/12/11 07:23:03;;;;;;;17.13;7.50;;;2.00;99.90;;;;;;5004814;28;20022;-67
2020/12/11 07:25:29;;;;;;;15.43;6.28;;;2.00;99.90;;;;;;4998254;28;20034;-68
2020/12/11 07:28:02;;;;;;;13.65;6.88;;;2.10;99.90;;;;;;5003300;28;20756;-68
2020/12/11 07:30:30;;;;;;;13.13;6.50;;;2.10;99.90;;;;;;4999611;28;20041;-67
2020/12/11 07:32:56;;;;;;;11.80;5.85;;;2.10;99.90;;;;;;5002273;28;20057;-66
2020/12/11 07:35:23;;;;;;;17.20;7.20;;;2.20;99.90;;;;;;5001182;28;20070;-67
2020/12/11 07:37:53;;;;;;;13.60;6.18;;;2.20;99.90;;;;;;5002772;28;20022;-67
2020/12/11 07:40:21;;;;;;;10.30;4.95;;;2.20;99.90;;;;;;5000810;28;20044;-65
2020/12/11 07:42:48;;;;;;;13.88;6.75;;;2.20;99.90;;;;;;5001615;28;20729;-65
2020/12/11 07:45:28;;;;;;;16.63;6.20;;;2.30;99.90;;;;;;5001133;28;20511;-68
2020/12/11 07:47:55;;;;;;;14.30;6.40;;;2.30;99.90;;;;;;4998364;28;20115;-67
2020/12/11 07:50:25;;;;;;;16.58;6.45;;;2.30;99.90;;;;;;4998511;28;20030;-66
2020/12/11 07:52:53;;;;;;;15.60;6.35;;;2.30;99.90;;;;;;5000529;28;20069;-67
2020/12/11 07:55:20;;;;;;;15.88;7.15;;;2.30;99.90;;;;;;4996297;28;20455;-67
2020/12/11 07:57:54;;;;;;;14.05;6.60;;;2.30;99.90;;;;;;5007747;28;20121;-67
2020/12/11 08:00:20;;;;;;;16.00;6.93;;;2.30;99.90;;;;;;4999904;28;20133;-67
2020/12/11 08:02:53;;;;;;;14.60;6.88;;;2.30;99.90;;;;;;5000518;28;20038;-67
2020/12/11 08:05:21;;;;;;;13.73;6.25;;;2.40;99.90;;;;;;5001680;28;20037;-67
2020/12/11 08:07:54;;;;;;;17.73;6.00;;;2.40;99.90;;;;;;4998712;28;20634;-67
2020/12/11 08:10:24;;;;;;;13.50;6.32;;;2.40;99.90;;;;;;5000192;28;20088;-67
2020/12/11 08:12:51;;;;;;;18.33;6.85;;;2.40;99.90;;;;;;4997696;28;20034;-66
2020/12/11 08:15:33;;;;;;;14.25;5.88;;;2.40;99.90;;;;;;5000634;28;20496;-68
2020/12/11 08:18:28;;;;;;;13.15;6.15;;;2.50;99.90;;;;;;5002289;28;20049;-66
2020/12/11 08:21:01;;;;;;;12.65;6.07;;;2.40;99.90;;;;;;5001987;28;20125;-67
2020/12/11 08:23:43;;;;;;;12.88;5.88;;;2.40;99.90;;;;;;5005738;28;20031;-67
2020/12/11 08:26:15;;;;;;;13.73;6.28;;;2.40;99.90;;;;;;5004336;28;20026;-66
2020/12/11 08:28:44;;;;;;;14.63;7.68;;;2.50;99.90;;;;;;5004264;28;20029;-66
2020/12/11 08:31:16;;;;;;;14.52;6.38;;;2.50;99.90;;;;;;5001339;28;20038;-66
2020/12/11 08:33:41;;;;;;;14.68;6.88;;;2.50;99.90;;;;;;5003849;28;20387;-66
2020/12/11 08:36:24;;;;;;;15.10;6.53;;;2.50;99.90;;;;;;4999827;28;20026;-67
2020/12/11 08:39:03;;;;;;;14.43;7.05;;;2.50;99.90;;;;;;5001596;28;20062;-67
2020/12/11 08:41:30;;;;;;;14.27;6.20;;;2.60;99.90;;;;;;5006082;28;20038;-67
2020/12/11 08:43:56;;;;;;;12.93;6.20;;;2.60;99.90;;;;;;5007476;28;20486;-67
2020/12/11 08:46:32;;;;;;;14.05;6.22;;;2.60;99.90;;;;;;5008972;28;20062;-67
2020/12/11 08:51:30;;;;;;;12.98;6.70;;;2.60;99.90;;;;;;5009409;28;20045;-66
2020/12/11 08:53:56;;;;;;;13.00;6.35;;;2.60;99.90;;;;;;5007709;28;20064;-67
2020/12/11 08:56:23;;;;;;;15.15;6.13;;;2.60;99.90;;;;;;5006864;28;20483;-66
2020/12/11 08:58:48;;;;;;;12.18;6.25;;;2.60;99.90;;;;;;5009317;28;20038;-66
2020/12/11 09:01:14;;;;;;;12.13;5.93;;;2.60;99.90;;;;;;5008038;28;20109;-67
2020/12/11 09:03:39;;;;;;;13.52;6.60;;;2.70;99.90;;;;;;5023989;28;20068;-67
2020/12/11 09:06:05;;;;;;;12.90;6.50;;;2.60;99.90;;;;;;5005789;28;20081;-67
2020/12/11 09:08:30;;;;;;;12.20;6.03;;;2.60;99.90;;;;;;5008212;28;20030;-67
2020/12/11 09:10:56;;;;;;;15.98;6.65;;;2.70;99.90;;;;;;5008355;28;20040;-67
2020/12/11 09:13:21;;;;;;;11.88;5.95;;;2.70;99.90;;;;;;5007117;28;20116;-67
2020/12/11 09:15:47;;;;;;;15.10;6.80;;;2.70;99.90;;;;;;5007206;28;20037;-67
2020/12/11 09:18:12;;;;;;;14.85;6.65;;;2.70;99.90;;;;;;5006302;28;20079;-68
2020/12/11 09:20:38;;;;;;;13.75;6.75;;;2.80;99.90;;;;;;5005545;28;20061;-69
2020/12/11 09:23:03;;;;;;;13.32;6.82;;;2.80;99.90;;;;;;5007530;28;20064;-67
2020/12/11 09:25:29;;;;;;;12.25;6.15;;;2.80;99.90;;;;;;5008258;28;20050;-66
2020/12/11 09:27:55;;;;;;;14.30;6.38;;;2.90;99.90;;;;;;5008244;28;20026;-67
2020/12/11 09:35:24;;;;;;;12.85;5.10;;;2.90;99.90;;;;;;5005995;28;20505;-67
2020/12/11 09:37:50;;;;;;;15.75;6.72;;;3.00;99.90;;;;;;5003750;28;20029;-67
2020/12/11 09:40:22;;;;;;;17.45;6.05;;;3.00;99.90;;;;;;5004227;28;20038;-67
2020/12/11 09:53:03;;;;;;;13.50;6.43;;;3.20;99.90;;;;;;5004787;28;20332;-67
2020/12/11 09:55:37;;;;;;;12.93;6.38;;;3.10;99.90;;;;;;5006723;28;20038;-67
2020/12/11 09:58:03;;;;;;;15.65;6.68;;;3.20;99.90;;;;;;5006465;28;20505;-66
2020/12/11 10:00:28;;;;;;;16.15;6.47;;;3.20;99.90;;;;;;5008976;28;20041;-66
2020/12/11 10:03:04;;;;;;;15.63;6.85;;;3.20;99.90;;;;;;5011163;28;20044;-67
2020/12/11 10:05:30;;;;;;;12.57;5.70;;;3.20;99.90;;;;;;5009747;28;20038;-67
2020/12/11 10:07:56;;;;;;;15.73;6.65;;;3.20;99.90;;;;;;5008066;28;20121;-67
2020/12/11 10:10:22;;;;;;;13.93;6.32;;;3.30;99.90;;;;;;5004878;28;20037;-67
2020/12/11 10:12:47;;;;;;;15.82;6.82;;;3.20;99.90;;;;;;5007934;28;20038;-67
2020/12/11 10:15:15;;;;;;;15.90;7.13;;;3.20;99.90;;;;;;5005968;28;21137;-68
2020/12/11 10:17:41;;;;;;;12.25;6.65;;;3.20;99.90;;;;;;5007550;28;20034;-66
2020/12/11 10:20:06;;;;;;;13.13;5.82;;;3.30;99.90;;;;;;5007721;28;20560;-67
2020/12/11 10:22:32;;;;;;;14.32;6.63;;;3.30;99.90;;;;;;5006894;28;20033;-67
2020/12/11 10:24:58;;;;;;;14.82;7.43;;;3.30;99.90;;;;;;5007012;28;20026;-66
2020/12/11 10:27:24;;;;;;;16.88;7.15;;;3.30;99.90;;;;;;5006988;28;20034;-66
2020/12/11 10:29:49;;;;;;;13.50;6.18;;;3.40;99.90;;;;;;5006420;28;20030;-67
2020/12/11 10:32:15;;;;;;;11.15;5.78;;;3.50;99.90;;;;;;5006701;28;20038;-66
2020/12/11 10:34:41;;;;;;;11.88;5.68;;;3.50;99.90;;;;;;5006183;28;20113;-67
2020/12/11 10:37:14;;;;;;;13.15;6.68;;;3.50;99.90;;;;;;5007326;28;20479;-67
2020/12/11 10:39:40;;;;;;;14.20;6.45;;;3.50;99.90;;;;;;5007038;28;20030;-67
2020/12/11 10:42:06;;;;;;;14.23;5.95;;;3.40;99.90;;;;;;5007412;28;20061;-67
2020/12/11 10:44:32;;;;;;;15.35;6.93;;;3.40;99.90;;;;;;5007277;28;20124;-67
2020/12/11 10:46:58;;;;;;;12.82;6.28;;;3.40;99.90;;;;;;5007153;28;20120;-68
2020/12/11 10:49:23;;;;;;;13.43;6.50;;;3.40;99.90;;;;;;5022155;28;20067;-68
2020/12/11 10:51:49;;;;;;;13.00;6.35;;;3.40;99.90;;;;;;4999335;28;20045;-68
2020/12/11 10:54:17;;;;;;;15.95;6.63;;;3.40;99.90;;;;;;4998645;28;20053;-68
2020/12/11 10:56:45;;;;;;;12.27;6.45;;;3.50;99.90;;;;;;4996480;28;20026;-65
2020/12/11 10:59:12;;;;;;;11.93;6.10;;;3.50;99.90;;;;;;4999572;28;20053;-67
2020/12/11 11:01:38;;;;;;;13.52;6.30;;;3.50;99.90;;;;;;4996646;28;20030;-68
2020/12/11 11:04:05;;;;;;;13.82;7.03;;;3.50;99.90;;;;;;4998330;28;20042;-68
2020/12/11 11:06:33;;;;;;;16.58;7.25;;;3.50;99.90;;;;;;4996995;28;20502;-68
2020/12/11 11:11:40;;;;;;;17.95;7.13;;;3.30;99.90;;;;;;5001253;28;20059;-67
2020/12/11 11:19:37;;;;;;;14.93;7.22;;;3.40;99.90;;;;;;5000480;28;20137;-66
2020/12/11 11:22:22;;;;;;;13.80;6.32;;;3.40;99.90;;;;;;5001089;28;20034;-68
2020/12/11 11:29:54;;;;;;;17.73;7.55;;;3.40;99.90;;;;;;4998431;28;20402;-68
2020/12/11 11:32:20;;;;;;;15.65;7.05;;;3.50;99.90;;;;;;5002725;28;20038;-67
2020/12/11 11:34:45;;;;;;;17.08;7.80;;;3.50;99.90;;;;;;4998951;28;20026;-68
2020/12/11 11:37:11;;;;;;;19.88;8.55;;;3.50;99.90;;;;;;5001089;28;20030;-67
2020/12/11 11:39:37;;;;;;;15.88;7.00;;;3.40;99.90;;;;;;5000535;28;20038;-68
2020/12/11 11:42:02;;;;;;;15.80;7.32;;;3.40;99.90;;;;;;5000899;28;20029;-68
2020/12/11 11:47:12;;;;;;;15.45;7.63;;;3.30;99.90;;;;;;5004868;28;20053;-68
2020/12/11 11:49:53;;;;;;;19.98;8.07;;;3.40;99.90;;;;;;5002792;28;20503;-68
2020/12/11 11:55:05;;;;;;;16.83;8.05;;;3.30;99.90;;;;;;5000614;28;20041;-68
2020/12/11 11:57:30;;;;;;;14.57;7.72;;;3.40;99.90;;;;;;5000354;28;20034;-67
2020/12/11 11:59:56;;;;;;;17.40;8.73;;;3.40;99.90;;;;;;5001425;28;20026;-68
2020/12/11 12:02:22;;;;;;;15.05;7.88;;;3.50;99.90;;;;;;5024809;28;20163;-67
2020/12/11 12:04:47;;;;;;;16.40;8.23;;;3.40;99.90;;;;;;5005406;28;20030;-67
2020/12/11 12:07:13;;;;;;;18.45;8.55;;;3.50;99.90;;;;;;5009253;28;20026;-67
2020/12/11 12:09:38;;;;;;;15.20;7.72;;;3.40;99.90;;;;;;5008394;28;20029;-67
2020/12/11 12:12:04;;;;;;;18.55;7.80;;;3.50;99.90;;;;;;5007360;28;20026;-67
2020/12/11 12:14:29;;;;;;;15.95;8.10;;;3.40;99.90;;;;;;5009268;28;20509;-68
2020/12/11 12:16:58;;;;;;;16.67;8.02;;;3.40;99.90;;;;;;5008193;28;20030;-66
2020/12/11 12:19:35;;;;;;;18.17;8.43;;;3.50;99.90;;;;;;5009606;28;20494;-67
2020/12/11 12:27:49;;;;;;;19.60;7.80;;;3.50;99.90;;;;;;5005225;28;20037;-66
2020/12/11 12:30:15;;;;;;;19.42;8.43;;;3.60;99.90;;;;;;5007980;28;20049;-65
2020/12/11 12:33:53;;;;;;;17.50;7.80;;;3.70;99.90;;;;;;5006421;28;20026;-67
2020/12/11 12:43:53;;;;;;;14.23;7.55;;;3.80;99.90;;;;;;5002828;28;20064;-68
2020/12/11 12:46:19;;;;;;;14.15;6.97;;;3.80;99.90;;;;;;5006392;28;20038;-66
2020/12/11 12:48:44;;;;;;;18.30;8.60;;;3.80;99.90;;;;;;5003486;28;20464;-68
2020/12/11 12:51:10;;;;;;;14.02;7.32;;;3.90;99.90;;;;;;5006857;28;20096;-68
2020/12/11 12:53:36;;;;;;;16.38;8.35;;;3.90;99.90;;;;;;5007768;28;20445;-65
2020/12/11 12:59:15;;;;;;;14.27;7.30;;;3.90;99.90;;;;;;5007110;28;20030;-68
2020/12/11 13:02:07;;;;;;;17.67;7.47;;;4.00;99.90;;;;;;5002753;28;20407;-67
2020/12/11 13:06:58;;;;;;;13.15;6.85;;;4.00;99.90;;;;;;5007666;28;20050;-66
2020/12/11 13:09:25;;;;;;;16.88;8.18;;;4.00;99.90;;;;;;5008684;28;20064;-68
2020/12/11 13:11:51;;;;;;;13.55;7.57;;;4.00;99.90;;;;;;5017648;28;20037;-67
2020/12/11 13:14:17;;;;;;;13.00;7.53;;;3.90;99.90;;;;;;5007337;28;20103;-68
2020/12/11 13:16:43;;;;;;;14.35;7.38;;;4.00;99.90;;;;;;5006791;28;20034;-67
2020/12/11 13:19:12;;;;;;;15.23;7.43;;;4.00;99.90;;;;;;5008319;28;20040;-68
2020/12/11 13:21:43;;;;;;;17.48;7.55;;;3.90;99.90;;;;;;5004748;28;20587;-68
2020/12/11 13:26:54;;;;;;;16.85;7.95;;;3.90;99.90;;;;;;5007496;28;20446;-68
2020/12/11 13:29:20;;;;;;;15.85;7.68;;;3.90;99.90;;;;;;5006072;28;20041;-68
2020/12/11 13:31:46;;;;;;;14.18;7.45;;;3.90;99.90;;;;;;5003152;28;20061;-68
2020/12/11 13:34:12;;;;;;;26.80;9.80;;;3.90;99.90;;;;;;5001689;28;20026;-68
2020/12/11 13:36:37;;;;;;;16.58;7.80;;;3.90;99.90;;;;;;5002782;28;20033;-68
2020/12/11 13:39:04;;;;;;;15.43;7.75;;;3.90;99.90;;;;;;5001386;28;20030;-67
2020/12/11 13:41:30;;;;;;;15.07;6.97;;;3.90;99.90;;;;;;5005766;28;20399;-68
2020/12/11 13:43:56;;;;;;;15.40;7.43;;;3.90;99.90;;;;;;5004047;28;20041;-68
2020/12/11 13:46:22;;;;;;;15.65;7.85;;;4.00;99.90;;;;;;5000542;28;20030;-68
2020/12/11 13:48:47;;;;;;;16.98;7.97;;;4.00;99.90;;;;;;5002899;28;20030;-68
2020/12/11 13:51:15;;;;;;;17.35;8.10;;;4.00;99.90;;;;;;5000715;28;20038;-67